Map

Track Data

SID SEASON NUMBER BASIN SUBBASIN NAME ISO_TIME NATURE LAT LON WMO_WIND WMO_PRES WMO_AGENCY TRACK_TYPE DIST2LAND LANDFALL IFLAG USA_AGENCY USA_ATCF_ID USA_LAT USA_LON USA_RECORD USA_STATUS USA_WIND USA_PRES USA_SSHS USA_R34_NE USA_R34_SE USA_R34_SW USA_R34_NW USA_R50_NE USA_R50_SE USA_R50_SW USA_R50_NW USA_R64_NE USA_R64_SE USA_R64_SW USA_R64_NW USA_POCI USA_ROCI USA_RMW USA_EYE TOKYO_LAT TOKYO_LON TOKYO_GRADE TOKYO_WIND TOKYO_PRES TOKYO_R50_DIR TOKYO_R50_LONG TOKYO_R50_SHORT TOKYO_R30_DIR TOKYO_R30_LONG TOKYO_R30_SHORT TOKYO_LAND CMA_LAT CMA_LON CMA_CAT CMA_WIND CMA_PRES HKO_LAT HKO_LON HKO_CAT HKO_WIND HKO_PRES NEWDELHI_LAT NEWDELHI_LON NEWDELHI_GRADE NEWDELHI_WIND NEWDELHI_PRES NEWDELHI_CI NEWDELHI_DP NEWDELHI_POCI REUNION_LAT REUNION_LON REUNION_TYPE REUNION_WIND REUNION_PRES REUNION_TNUM REUNION_CI REUNION_RMW REUNION_R34_NE REUNION_R34_SE REUNION_R34_SW REUNION_R34_NW REUNION_R50_NE REUNION_R50_SE REUNION_R50_SW REUNION_R50_NW REUNION_R64_NE REUNION_R64_SE REUNION_R64_SW REUNION_R64_NW BOM_LAT BOM_LON BOM_TYPE BOM_WIND BOM_PRES BOM_TNUM BOM_CI BOM_RMW BOM_R34_NE BOM_R34_SE BOM_R34_SW BOM_R34_NW BOM_R50_NE BOM_R50_SE BOM_R50_SW BOM_R50_NW BOM_R64_NE BOM_R64_SE BOM_R64_SW BOM_R64_NW BOM_ROCI BOM_POCI BOM_EYE BOM_POS_METHOD BOM_PRES_METHOD NADI_LAT NADI_LON NADI_CAT NADI_WIND NADI_PRES WELLINGTON_LAT WELLINGTON_LON WELLINGTON_WIND WELLINGTON_PRES DS824_LAT DS824_LON DS824_STAGE DS824_WIND DS824_PRES TD9636_LAT TD9636_LON TD9636_STAGE TD9636_WIND TD9636_PRES TD9635_LAT TD9635_LON TD9635_WIND TD9635_PRES TD9635_ROCI NEUMANN_LAT NEUMANN_LON NEUMANN_CLASS NEUMANN_WIND NEUMANN_PRES MLC_LAT MLC_LON MLC_CLASS MLC_WIND MLC_PRES USA_GUST BOM_GUST BOM_GUST_PER REUNION_GUST REUNION_GUST_PER USA_SEAHGT USA_SEARAD_NE USA_SEARAD_SE USA_SEARAD_SW USA_SEARAD_NW STORM_SPEED STORM_DIR
1968044S17139 1968 16 SP EA NOT_NAMED 1968-02-12 23:00:00 NR -16.7000 138.500 1002 bom main 11 11 ______O___O___ -1 -16.7000 138.500 1002 -16.7000 138.500 1 4 86
1968044S17139 1968 16 SP EA NOT_NAMED 1968-02-13 00:00:00 TS -16.6958 138.563 main 11 11 O_____P__OP___ jtwc_sh SH251968 -16.7000 138.600 -1 -16.7079 138.545 1002 -16.7000 138.500 TC 25 1002 -16.6773 138.574 1 3 74
1968044S17139 1968 16 SP EA NOT_NAMED 1968-02-13 02:00:00 TS -16.6541 138.665 1002 bom main 15 15 P_____O__PP___ SH251968 -16.6255 138.729 -1 -16.7000 138.600 1002 -16.6765 138.551 TC 26 1001 -16.6315 138.720 1 3 64
1968044S17139 1968 16 SP EA NOT_NAMED 1968-02-13 03:00:00 TS -16.6270 138.710 main 24 24 P_____P__PP___ SH251968 -16.5900 138.795 -1 -16.6746 138.597 1001 -16.6625 138.580 TC 27 1001 -16.6082 138.792 1 3 58
1968044S17139 1968 16 SP EA NOT_NAMED 1968-02-13 05:00:00 TS -16.5677 138.809 1000 bom main 30 30 P_____O__PP___ SH251968 -16.5265 138.930 -1 -16.6000 138.600 1000 -16.6251 138.653 TC 29 1000 -16.5603 138.933 1 4 61
1968044S17139 1968 16 SP EA NOT_NAMED 1968-02-13 06:00:00 TS -16.5404 138.870 main 44 44 O_____P__OP___ jtwc_sh SH251968 -16.5000 139.000 -1 -16.5667 138.651 1000 -16.6000 138.700 TC 30 1000 -16.5356 139.000 1 4 67
1968044S17139 1968 16 SP EA NOT_NAMED 1968-02-13 08:00:00 TS -16.4875 139.007 1000 bom main 44 44 P_____O__PP___ SH251968 -16.4588 139.144 -1 -16.5000 138.800 1000 -16.5358 138.818 TC 30 1000 -16.4840 139.128 1 4 68
1968044S17139 1968 16 SP EA NOT_NAMED 1968-02-13 09:00:00 TS -16.4617 139.074 main 46 46 P_____P__PP___ SH251968 -16.4425 139.215 -1 -16.4667 138.867 1000 -16.5000 138.885 TC 30 1000 -16.4569 139.189 1 4 68
1968044S17139 1968 16 SP EA NOT_NAMED 1968-02-13 11:00:00 TS -16.4117 139.204 1000 bom main 59 59 P_____O__PO___ SH251968 -16.4141 139.345 -1 -16.4000 139.000 1000 -16.4303 139.028 TC 30 1000 -16.4000 139.300 1 4 68
1968044S17139 1968 16 SP EA NOT_NAMED 1968-02-13 12:00:00 TS -16.3863 139.263 main 64 64 O_____P__OP___ jtwc_sh SH251968 -16.4000 139.400 -1 -16.3612 139.067 1000 -16.4000 139.100 TC 30 1000 -16.3701 139.351 1 3 65
1968044S17139 1968 16 SP EA NOT_NAMED 1968-02-13 14:00:00 TS -16.3404 139.364 1000 bom main 79 79 P_____O__PP___ SH251968 -16.3666 139.472 -1 -16.3000 139.200 1000 -16.3587 139.233 TC 30 1000 -16.3101 139.444 1 3 66
1968044S17139 1968 16 SP EA NOT_NAMED 1968-02-13 15:00:00 TS -16.3243 139.411 main 79 79 P_____P__PP___ SH251968 -16.3499 139.500 -1 -16.2975 139.267 1000 -16.3425 139.300 TC 30 1000 -16.2817 139.489 1 3 72
1968044S17139 1968 16 SP EA NOT_NAMED 1968-02-13 17:00:00 TS -16.2959 139.506 1000 bom main 84 84 P_____O__PP___ SH251968 -16.3166 139.560 -1 -16.3000 139.400 1000 -16.3140 139.433 TC 30 1000 -16.2322 139.578 1 3 71
1968044S17139 1968 16 SP EA NOT_NAMED 1968-02-13 18:00:00 TS -16.2764 139.558 main 89 89 O_____P__OP___ jtwc_sh SH251968 -16.3000 139.600 -1 -16.2691 139.467 999 -16.3000 139.500 TC 30 1000 -16.2127 139.624 1 4 67
1968044S17139 1968 16 SP EA NOT_NAMED 1968-02-13 20:00:00 TS -16.2268 139.674 999 bom main 104 104 P_____O__PP___ SH251968 -16.2504 139.712 -1 -16.2000 139.600 999 -16.2449 139.623 TC 30 999 -16.1882 139.722 1 4 68
1968044S17139 1968 16 SP EA NOT_NAMED 1968-02-13 21:00:00 TS -16.2093 139.735 main 104 104 P_____P__PP___ SH251968 -16.2275 139.778 -1 -16.1866 139.656 999 -16.2199 139.685 TC 30 999 -16.1849 139.777 1 4 82
1968044S17139 1968 16 SP EA NOT_NAMED 1968-02-13 23:00:00 TS -16.1986 139.873 999 bom main 116 116 P_____O__PO___ SH251968 -16.1995 139.922 -1 -16.2000 139.800 999 -16.1938 139.822 TC 30 999 -16.2000 139.900 1 4 90
1968044S17139 1968 16 SP EA NOT_NAMED 1968-02-14 00:00:00 TS -16.2075 139.960 main 123 123 O_____P__OP___ jtwc_sh SH251968 -16.2000 140.000 -1 -16.2255 139.928 999 -16.2000 139.900 TC 30 999 -16.2121 139.973 1 5 102
1968044S17139 1968 16 SP EA NOT_NAMED 1968-02-14 02:00:00 TS -16.2544 140.145 999 bom main 123 115 P_____O__PP___ SH251968 -16.2266 140.153 -1 -16.3000 140.200 999 -16.2630 140.090 TC 31 998 -16.2560 140.131 1 5 107
1968044S17139 1968 16 SP EA NOT_NAMED 1968-02-14 03:00:00 TS -16.2877 140.232 main 115 91 P_____P__PP___ SH251968 -16.2550 140.235 -1 -16.3279 140.283 998 -16.3125 140.192 TC 32 998 -16.2879 140.217 1 6 116
1968044S17139 1968 16 SP EA NOT_NAMED 1968-02-14 05:00:00 TS -16.3779 140.403 998 bom main 91 81 P_____O__PP___ SH251968 -16.3416 140.408 -1 -16.4000 140.400 998 -16.4338 140.400 TC 34 998 -16.3725 140.398 1 6 121
1968044S17139 1968 16 SP EA NOT_NAMED 1968-02-14 06:00:00 TS -16.4368 140.491 main 81 54 O_____P__OP___ jtwc_sh SH251968 -16.4000 140.500 -1 -16.4588 140.461 998 -16.5000 140.500 TC 35 998 -16.4254 140.493 1 6 127
1968044S17139 1968 16 SP EA NOT_NAMED 1968-02-14 08:00:00 TS -16.5663 140.668 998 bom main 54 54 P_____O__PP___ SH251968 -16.5321 140.687 -1 -16.6000 140.600 998 -16.6145 140.675 TC 35 997 -16.5528 140.691 1 7 127
1968044S17139 1968 16 SP EA NOT_NAMED 1968-02-14 09:00:00 TS -16.6382 140.764 main 44 24 P_____P__PP___ SH251968 -16.6125 140.785 -1 -16.6612 140.698 997 -16.6774 140.758 TC 35 997 -16.6276 140.792 1 7 130
1968044S17139 1968 16 SP EA NOT_NAMED 1968-02-14 11:00:00 TS -16.8028 140.961 997 bom main 15 10 P_____O__PO___ SH251968 -16.7973 140.992 -1 -16.8000 140.900 997 -16.8193 140.919 TC 35 997 -16.8000 141.000 1 8 133
1968044S17139 1968 16 SP EA NOT_NAMED 1968-02-14 12:00:00 TS -16.8969 141.056 main 0 0 O_____P__OP___ jtwc_sh SH251968 -16.9000 141.100 -1 -16.8921 140.969 997 -16.9000 141.000 TC 35 997 -16.8924 141.109 1 8 137
1968044S17139 1968 16 SP EA NOT_NAMED 1968-02-14 14:00:00 TS -17.1000 141.252 997 bom main 0 0 P_____O__PP___ SH251968 -17.1121 141.331 -1 -17.1000 141.100 997 -17.0733 141.161 TC 35 997 -17.1024 141.335 1 9 137
1968044S17139 1968 16 SP EA NOT_NAMED 1968-02-14 15:00:00 TS -17.2087 141.357 main 0 0 P_____P__PP___ SH251968 -17.2275 141.450 -1 -17.2000 141.192 997 -17.1699 141.243 TC 35 997 -17.2183 141.450 1 9 138
1968044S17139 1968 16 SP EA NOT_NAMED 1968-02-14 17:00:00 TS -17.4392 141.573 997 bom main 0 0 P_____O__PP___ SH251968 -17.4724 141.686 -1 -17.4000 141.400 997 -17.3833 141.411 TC 35 997 -17.4678 141.679 1 9 139
1968044S17139 1968 16 SP EA NOT_NAMED 1968-02-14 18:00:00 TS -17.5578 141.678 main 0 0 O_____P__OP___ jtwc_sh SH251968 -17.6000 141.800 -1 -17.4891 141.500 997 -17.5000 141.500 TC 35 997 -17.5999 141.792 1 10 140
1968044S17139 1968 16 SP EA NOT_NAMED 1968-02-14 20:00:00 TS -17.8053 141.888 997 bom main 0 0 P_____O__PP___ SH251968 -17.8533 142.019 -1 -17.7000 141.700 997 -17.7454 141.692 TC 35 997 -17.8743 142.010 1 10 143
1968044S17139 1968 16 SP EA NOT_NAMED 1968-02-14 21:00:00 TS -17.9449 141.990 main 0 0 P_____P__PP___ SH251968 -17.9850 142.123 -1 -17.8617 141.800 997 -17.8775 141.793 TC 35 997 -18.0152 142.112 1 10 147
1968044S17139 1968 16 SP EA NOT_NAMED 1968-02-14 23:00:00 TS -18.2345 142.185 997 bom main 0 0 P_____O__PO___ SH251968 -18.2583 142.314 -1 -18.2000 142.000 997 -18.1557 141.997 TC 35 997 -18.3000 142.300 1 10 147
1968044S17139 1968 16 SP EA NOT_NAMED 1968-02-15 00:00:00 TS -18.3680 142.280 main 0 0 O_____P__OP___ jtwc_sh SH251968 -18.4000 142.400 -1 -18.3049 142.100 997 -18.3000 142.100 TC 35 997 -18.4349 142.399 1 10 146
1968044S17139 1968 16 SP EA NOT_NAMED 1968-02-15 02:00:00 TS -18.6373 142.467 997 bom main 0 0 P_____O__PP___ SH251968 -18.6975 142.560 -1 -18.5000 142.300 997 -18.5813 142.327 TC 35 996 -18.7104 142.587 1 10 148
1968044S17139 1968 16 SP EA NOT_NAMED 1968-02-15 03:00:00 TS -18.7858 142.555 main 0 0 P_____P__PP___ SH251968 -18.8500 142.630 -1 -18.6509 142.405 996 -18.7276 142.437 TC 35 996 -18.8506 142.672 1 10 153
1968044S17139 1968 16 SP EA NOT_NAMED 1968-02-15 05:00:00 TS -19.0954 142.710 996 bom main 0 0 P_____O__PP___ SH251968 -19.1531 142.750 -1 -19.0000 142.600 996 -19.0360 142.628 TC 35 996 -19.1347 142.821 1 10 156
1968044S17139 1968 16 SP EA NOT_NAMED 1968-02-15 06:00:00 TS -19.2479 142.772 main 0 0 O_____P__OP___ jtwc_sh SH251968 -19.3000 142.800 -1 -19.1612 142.680 996 -19.2000 142.700 TC 35 996 -19.2781 142.882 1 10 161
1968044S17139 1968 16 SP EA NOT_NAMED 1968-02-15 08:00:00 TS -19.5522 142.879 997 bom main 0 0 P_____O__PP___ SH251968 -19.5691 142.910 -1 -19.5000 142.800 997 -19.5562 142.805 TC 35 996 -19.5666 142.970 1 10 163
1968044S17139 1968 16 SP EA NOT_NAMED 1968-02-15 09:00:00 TS -19.7091 142.918 main 0 0 P_____P__PP___ SH251968 -19.7000 142.952 -1 -19.6921 142.857 997 -19.7424 142.832 TC 35 996 -19.7112 142.995 1 10 172
1968044S17139 1968 16 SP EA NOT_NAMED 1968-02-15 11:00:00 TS -20.0288 142.946 997 bom main 0 0 P_____O__PO___ SH251968 -19.9636 143.000 -1 -20.1000 142.900 997 -20.1171 142.831 TC 35 996 -20.0000 143.000 1 10 177
1968044S17139 1968 16 SP EA NOT_NAMED 1968-02-15 12:00:00 TS -20.1898 142.928 main 0 0 O_____P__OP___ jtwc_sh SH251968 -20.1000 143.000 -1 -20.3054 142.863 997 -20.3000 142.800 TC 35 997 -20.1438 142.978 1 10 193
1968044S17139 1968 16 SP EA NOT_NAMED 1968-02-15 14:00:00 TS -20.5158 142.834 998 bom main 0 0 P_____O__PP___ SH251968 -20.3877 142.945 -1 -20.7000 142.700 998 -20.6738 142.692 TC 33 997 -20.4298 142.887 1 11 198
1968044S17139 1968 16 SP EA NOT_NAMED 1968-02-15 15:00:00 TS -20.6926 142.753 main 0 0 P_____P__PP___ SH251968 -20.5376 142.895 -1 -20.8854 142.613 998 -20.8525 142.610 TC 32 998 -20.5722 142.822 1 11 207
1968044S17139 1968 16 SP EA NOT_NAMED 1968-02-15 17:00:00 TS -21.0177 142.560 999 bom main 0 0 P_____O__PP___ SH251968 -20.8447 142.770 -1 -21.2000 142.400 999 -21.1702 142.411 TC 30 998 -20.8559 142.658 1 12 213
1968044S17139 1968 16 SP EA NOT_NAMED 1968-02-15 18:00:00 TS -21.1782 142.423 main 0 0 O_____P__OP___ jtwc_sh SH251968 -21.0000 142.700 -1 -21.3267 142.269 999 -21.3000 142.300 TC 30 999 -20.9972 142.562 1 12 224
1968044S17139 1968 16 SP EA NOT_NAMED 1968-02-15 20:00:00 TS -21.4367 142.121 999 bom main 0 0 ______O__PP___ SH251968 -1 -21.5000 142.000 999 -21.4917 142.071 TC 30 999 -21.2789 142.349 1 11 230
1968044S17139 1968 16 SP EA NOT_NAMED 1968-02-15 21:00:00 TS -21.5254 141.984 main 0 0 ______P__PP___ SH251968 -1 -21.5437 141.892 999 -21.5601 141.950 TC 30 999 -21.4195 142.235 1 8 241
1968044S17139 1968 16 SP EA NOT_NAMED 1968-02-15 23:00:00 TS -21.6380 141.738 1000 bom main 0 0 ______O__PO___ SH251968 -1 -21.6000 141.700 1000 -21.6605 141.710 TC 30 999 -21.7000 142.000 1 8 246
1968044S17139 1968 16 SP EA NOT_NAMED 1968-02-16 00:00:00 TS -21.6821 141.597 main 0 0 ______P__O____ -1 -21.6642 141.595 1000 -21.7000 141.600 TC 30 1000 1 7 243
1968044S17139 1968 16 SP EA NOT_NAMED 1968-02-16 02:00:00 TS -21.7912 141.409 1000 bom main 0 0 ______O__P____ -1 -21.8000 141.400 1000 -21.7824 141.417 TC 31 999 1 6 240
1968044S17139 1968 16 SP EA NOT_NAMED 1968-02-16 03:00:00 TS -21.8280 141.333 main 0 0 ______P__P____ -1 -21.8412 141.331 999 -21.8149 141.335 TC 32 999 1 5 245
1968044S17139 1968 16 SP EA NOT_NAMED 1968-02-16 05:00:00 TS -21.8859 141.189 998 bom main 0 0 ______O__P____ -1 -21.9000 141.200 998 -21.8719 141.178 TC 34 998 1 5 248
1968044S17139 1968 16 SP EA NOT_NAMED 1968-02-16 06:00:00 TS -21.9167 141.101 main 0 0 ______P__O____ -1 -21.9334 141.102 998 -21.9000 141.100 TC 35 998 1 5 248
1968044S17139 1968 16 SP EA NOT_NAMED 1968-02-16 08:00:00 TS -21.9860 140.917 999 bom main 0 0 ______O__P____ -1 -22.0000 140.900 999 -21.9721 140.933 TC 31 999 1 5 247
1968044S17139 1968 16 SP EA NOT_NAMED 1968-02-16 09:00:00 TS -22.0204 140.840 main 0 0 ______P__P____ -1 -22.0333 140.831 999 -22.0075 140.850 TC 30 1000 1 5 244
1968044S17139 1968 16 SP EA NOT_NAMED 1968-02-16 11:00:00 TS -22.0862 140.692 1002 bom main 0 0 ______O__P____ -1 -22.1000 140.700 1002 -22.0724 140.683 TC 26 1001 5 246
1968044S17139 1968 16 SP EA NOT_NAMED 1968-02-16 12:00:00 TS -22.1194 140.599 main 0 0 ______P__O____ -1 -22.1388 140.597 1002 -22.1000 140.600 TC 25 1002 5 251
1968044S17139 1968 16 SP EA NOT_NAMED 1968-02-16 14:00:00 TS -22.1716 140.417 1002 bom main 0 0 ______O__P____ -1 -22.2000 140.400 1002 -22.1433 140.433 TC 25 1002 5 253
1968044S17139 1968 16 SP EA NOT_NAMED 1968-02-16 15:00:00 TS -22.1843 140.363 main 0 0 ______P__P____ -1 -22.2024 140.373 1002 -22.1601 140.350 TC 25 1002 3 261
1968044S17139 1968 16 SP EA NOT_NAMED 1968-02-16 17:00:00 TS -22.1951 140.253 1002 bom main 0 0 ______O__P____ -1 -22.2000 140.300 1002 -22.1877 140.183 TC 25 1002 4 261
1968044S17139 1968 16 SP EA NOT_NAMED 1968-02-16 18:00:00 TS -22.2141 140.152 main 0 0 ______P__O____ -1 -22.2211 140.178 1002 -22.2000 140.100 TC 25 1002 9 256
1968044S17139 1968 16 SP EA NOT_NAMED 1968-02-16 20:00:00 NR -22.3000 139.800 1002 bom main 0 ______O_______ -1 -22.3000 139.800 1002 TC 10 255

Digital Typhoon Data and Search

About IBTrACS Database

This database is a web-friendly format of International Best Track Archive for Climate Stewardship (IBTrACS), a global best track data archive curated by NOAA dating back to 1842.

Updated: 2021-11-26